sensor_id;sensor_type;location;lat;lon;timestamp;P1;durP1;ratioP1;P2;durP2;ratioP2
75655;SDS011;64252;51.094;13.714;2023-05-15T00:01:22;5.15;;;2.83;;
75655;SDS011;64252;51.094;13.714;2023-05-15T00:03:48;5.70;;;3.22;;
75655;SDS011;64252;51.094;13.714;2023-05-15T00:06:16;5.95;;;3.03;;
75655;SDS011;64252;51.094;13.714;2023-05-15T00:08:41;7.72;;;2.58;;
75655;SDS011;64252;51.094;13.714;2023-05-15T00:11:07;5.00;;;2.65;;
75655;SDS011;64252;51.094;13.714;2023-05-15T00:13:32;5.50;;;3.10;;
75655;SDS011;64252;51.094;13.714;2023-05-15T00:15:58;7.15;;;3.10;;
75655;SDS011;64252;51.094;13.714;2023-05-15T00:18:23;5.25;;;2.72;;
75655;SDS011;64252;51.094;13.714;2023-05-15T00:20:49;5.55;;;2.90;;
75655;SDS011;64252;51.094;13.714;2023-05-15T00:23:15;5.13;;;3.25;;
75655;SDS011;64252;51.094;13.714;2023-05-15T00:25:40;6.63;;;3.25;;
75655;SDS011;64252;51.094;13.714;2023-05-15T00:28:06;6.18;;;3.47;;
75655;SDS011;64252;51.094;13.714;2023-05-15T00:30:31;5.93;;;3.30;;
75655;SDS011;64252;51.094;13.714;2023-05-15T00:32:58;4.50;;;2.92;;
75655;SDS011;64252;51.094;13.714;2023-05-15T00:35:23;7.50;;;3.50;;
75655;SDS011;64252;51.094;13.714;2023-05-15T00:37:49;6.22;;;3.50;;
75655;SDS011;64252;51.094;13.714;2023-05-15T00:40:18;7.30;;;3.65;;
75655;SDS011;64252;51.094;13.714;2023-05-15T00:42:46;6.53;;;3.20;;
75655;SDS011;64252;51.094;13.714;2023-05-15T00:45:12;6.43;;;3.50;;
75655;SDS011;64252;51.094;13.714;2023-05-15T00:47:39;6.32;;;3.72;;
75655;SDS011;64252;51.094;13.714;2023-05-15T00:50:08;6.70;;;3.47;;
75655;SDS011;64252;51.094;13.714;2023-05-15T00:52:35;5.57;;;3.47;;
75655;SDS011;64252;51.094;13.714;2023-05-15T00:55:02;6.57;;;3.60;;
75655;SDS011;64252;51.094;13.714;2023-05-15T00:57:29;5.50;;;3.38;;
75655;SDS011;64252;51.094;13.714;2023-05-15T00:59:56;7.28;;;3.90;;
75655;SDS011;64252;51.094;13.714;2023-05-15T01:02:23;6.25;;;3.60;;
75655;SDS011;64252;51.094;13.714;2023-05-15T01:04:49;5.85;;;3.63;;
75655;SDS011;64252;51.094;13.714;2023-05-15T01:07:14;7.40;;;3.97;;
75655;SDS011;64252;51.094;13.714;2023-05-15T01:09:43;7.57;;;3.40;;
75655;SDS011;64252;51.094;13.714;2023-05-15T01:12:11;5.72;;;3.20;;
75655;SDS011;64252;51.094;13.714;2023-05-15T01:14:39;7.35;;;3.97;;
75655;SDS011;64252;51.094;13.714;2023-05-15T01:17:05;7.63;;;3.92;;
75655;SDS011;64252;51.094;13.714;2023-05-15T01:19:33;6.53;;;3.60;;
75655;SDS011;64252;51.094;13.714;2023-05-15T01:28:37;6.85;;;3.70;;
75655;SDS011;64252;51.094;13.714;2023-05-15T01:31:09;8.45;;;4.03;;
75655;SDS011;64252;51.094;13.714;2023-05-15T01:33:41;6.43;;;3.67;;
75655;SDS011;64252;51.094;13.714;2023-05-15T01:38:44;5.28;;;3.20;;
75655;SDS011;64252;51.094;13.714;2023-05-15T01:44:06;5.93;;;3.53;;
75655;SDS011;64252;51.094;13.714;2023-05-15T01:46:37;5.57;;;3.42;;
75655;SDS011;64252;51.094;13.714;2023-05-15T01:49:06;4.93;;;3.30;;
75655;SDS011;64252;51.094;13.714;2023-05-15T01:51:37;6.03;;;3.72;;
75655;SDS011;64252;51.094;13.714;2023-05-15T01:54:05;6.45;;;3.30;;
75655;SDS011;64252;51.094;13.714;2023-05-15T01:56:33;6.10;;;3.15;;
75655;SDS011;64252;51.094;13.714;2023-05-15T01:59:00;7.95;;;3.42;;
75655;SDS011;64252;51.094;13.714;2023-05-15T02:01:28;5.40;;;3.17;;
75655;SDS011;64252;51.094;13.714;2023-05-15T02:03:56;6.05;;;3.65;;
75655;SDS011;64252;51.094;13.714;2023-05-15T02:06:22;5.70;;;3.63;;
75655;SDS011;64252;51.094;13.714;2023-05-15T02:08:51;5.68;;;3.45;;
75655;SDS011;64252;51.094;13.714;2023-05-15T02:11:19;6.03;;;3.88;;
75655;SDS011;64252;51.094;13.714;2023-05-15T02:13:44;6.25;;;3.45;;
75655;SDS011;64252;51.094;13.714;2023-05-15T02:16:10;7.32;;;3.80;;
75655;SDS011;64252;51.094;13.714;2023-05-15T02:18:36;9.95;;;4.13;;
75655;SDS011;64252;51.094;13.714;2023-05-15T02:21:02;7.03;;;3.78;;
75655;SDS011;64252;51.094;13.714;2023-05-15T02:23:27;5.95;;;3.35;;
75655;SDS011;64252;51.094;13.714;2023-05-15T02:29:20;6.32;;;3.83;;
75655;SDS011;64252;51.094;13.714;2023-05-15T02:37:38;6.10;;;3.78;;
75655;SDS011;64252;51.094;13.714;2023-05-15T02:40:08;6.80;;;3.80;;
75655;SDS011;64252;51.094;13.714;2023-05-15T02:42:37;6.25;;;3.58;;
75655;SDS011;64252;51.094;13.714;2023-05-15T02:45:04;6.53;;;4.38;;
75655;SDS011;64252;51.094;13.714;2023-05-15T02:47:32;11.40;;;4.35;;
75655;SDS011;64252;51.094;13.714;2023-05-15T02:49:59;8.23;;;3.78;;
75655;SDS011;64252;51.094;13.714;2023-05-15T02:52:26;6.20;;;3.67;;
75655;SDS011;64252;51.094;13.714;2023-05-15T02:54:52;7.15;;;3.42;;
75655;SDS011;64252;51.094;13.714;2023-05-15T02:57:17;6.93;;;3.70;;
75655;SDS011;64252;51.094;13.714;2023-05-15T02:59:43;7.45;;;3.65;;
75655;SDS011;64252;51.094;13.714;2023-05-15T03:02:09;6.28;;;3.70;;
75655;SDS011;64252;51.094;13.714;2023-05-15T03:04:35;6.45;;;3.42;;
75655;SDS011;64252;51.094;13.714;2023-05-15T03:07:00;7.60;;;3.67;;
75655;SDS011;64252;51.094;13.714;2023-05-15T03:09:26;6.43;;;3.75;;
75655;SDS011;64252;51.094;13.714;2023-05-15T03:11:52;5.35;;;3.63;;
75655;SDS011;64252;51.094;13.714;2023-05-15T03:14:17;6.43;;;4.18;;
75655;SDS011;64252;51.094;13.714;2023-05-15T03:16:43;5.35;;;3.40;;
75655;SDS011;64252;51.094;13.714;2023-05-15T03:19:09;7.90;;;4.07;;
75655;SDS011;64252;51.094;13.714;2023-05-15T03:21:34;6.57;;;3.63;;
75655;SDS011;64252;51.094;13.714;2023-05-15T03:24:00;6.18;;;3.90;;
75655;SDS011;64252;51.094;13.714;2023-05-15T03:26:26;6.50;;;3.25;;
75655;SDS011;64252;51.094;13.714;2023-05-15T03:28:52;7.43;;;3.53;;
75655;SDS011;64252;51.094;13.714;2023-05-15T03:31:18;5.63;;;3.50;;
75655;SDS011;64252;51.094;13.714;2023-05-15T03:33:44;5.55;;;3.20;;
75655;SDS011;64252;51.094;13.714;2023-05-15T03:36:14;6.90;;;3.55;;
75655;SDS011;64252;51.094;13.714;2023-05-15T03:38:41;7.40;;;4.22;;
75655;SDS011;64252;51.094;13.714;2023-05-15T03:41:11;6.00;;;3.13;;
75655;SDS011;64252;51.094;13.714;2023-05-15T03:43:36;6.80;;;3.70;;
75655;SDS011;64252;51.094;13.714;2023-05-15T03:46:02;8.85;;;3.45;;
75655;SDS011;64252;51.094;13.714;2023-05-15T03:48:29;6.80;;;3.47;;
75655;SDS011;64252;51.094;13.714;2023-05-15T03:50:55;6.32;;;3.58;;
75655;SDS011;64252;51.094;13.714;2023-05-15T03:53:20;5.90;;;3.05;;
75655;SDS011;64252;51.094;13.714;2023-05-15T03:55:46;8.85;;;3.47;;
75655;SDS011;64252;51.094;13.714;2023-05-15T03:58:12;5.63;;;3.47;;
75655;SDS011;64252;51.094;13.714;2023-05-15T04:00:38;6.03;;;2.95;;
75655;SDS011;64252;51.094;13.714;2023-05-15T04:03:03;4.85;;;3.00;;
75655;SDS011;64252;51.094;13.714;2023-05-15T04:05:29;5.10;;;3.30;;
75655;SDS011;64252;51.094;13.714;2023-05-15T04:07:54;6.40;;;3.50;;
75655;SDS011;64252;51.094;13.714;2023-05-15T04:10:20;5.78;;;3.40;;
75655;SDS011;64252;51.094;13.714;2023-05-15T04:12:45;5.07;;;3.00;;
75655;SDS011;64252;51.094;13.714;2023-05-15T04:15:19;5.80;;;2.85;;
75655;SDS011;64252;51.094;13.714;2023-05-15T04:17:53;5.22;;;3.13;;
75655;SDS011;64252;51.094;13.714;2023-05-15T04:20:22;4.95;;;3.20;;
75655;SDS011;64252;51.094;13.714;2023-05-15T04:22:49;6.53;;;2.92;;
75655;SDS011;64252;51.094;13.714;2023-05-15T04:25:15;6.90;;;3.67;;
75655;SDS011;64252;51.094;13.714;2023-05-15T04:27:42;5.25;;;2.92;;
75655;SDS011;64252;51.094;13.714;2023-05-15T04:30:09;5.65;;;2.63;;
75655;SDS011;64252;51.094;13.714;2023-05-15T04:32:35;4.63;;;2.80;;
75655;SDS011;64252;51.094;13.714;2023-05-15T04:35:02;6.10;;;3.33;;
75655;SDS011;64252;51.094;13.714;2023-05-15T04:37:34;5.50;;;3.33;;
75655;SDS011;64252;51.094;13.714;2023-05-15T04:40:00;6.95;;;3.20;;
75655;SDS011;64252;51.094;13.714;2023-05-15T04:42:26;6.28;;;3.45;;
75655;SDS011;64252;51.094;13.714;2023-05-15T04:44:54;6.03;;;3.40;;
75655;SDS011;64252;51.094;13.714;2023-05-15T04:47:21;8.98;;;3.35;;
75655;SDS011;64252;51.094;13.714;2023-05-15T04:49:46;5.57;;;2.90;;
75655;SDS011;64252;51.094;13.714;2023-05-15T04:52:14;5.78;;;3.35;;
75655;SDS011;64252;51.094;13.714;2023-05-15T04:54:40;5.82;;;3.15;;
75655;SDS011;64252;51.094;13.714;2023-05-15T04:57:06;5.35;;;3.03;;
75655;SDS011;64252;51.094;13.714;2023-05-15T04:59:32;5.15;;;3.40;;
75655;SDS011;64252;51.094;13.714;2023-05-15T05:01:58;5.65;;;2.95;;
75655;SDS011;64252;51.094;13.714;2023-05-15T05:04:24;6.80;;;3.30;;
75655;SDS011;64252;51.094;13.714;2023-05-15T05:06:50;4.65;;;3.10;;
75655;SDS011;64252;51.094;13.714;2023-05-15T05:09:19;6.13;;;3.20;;
75655;SDS011;64252;51.094;13.714;2023-05-15T05:11:45;5.68;;;3.45;;
75655;SDS011;64252;51.094;13.714;2023-05-15T05:14:13;7.22;;;3.47;;
75655;SDS011;64252;51.094;13.714;2023-05-15T05:16:40;5.88;;;3.35;;
75655;SDS011;64252;51.094;13.714;2023-05-15T05:19:06;6.38;;;2.90;;
75655;SDS011;64252;51.094;13.714;2023-05-15T05:21:32;5.72;;;3.35;;
75655;SDS011;64252;51.094;13.714;2023-05-15T05:23:58;9.40;;;4.05;;
75655;SDS011;64252;51.094;13.714;2023-05-15T05:26:24;7.00;;;3.63;;
75655;SDS011;64252;51.094;13.714;2023-05-15T05:28:50;7.30;;;3.80;;
75655;SDS011;64252;51.094;13.714;2023-05-15T05:31:17;7.22;;;3.65;;
75655;SDS011;64252;51.094;13.714;2023-05-15T05:33:42;9.00;;;3.67;;
75655;SDS011;64252;51.094;13.714;2023-05-15T05:36:08;6.57;;;3.92;;
75655;SDS011;64252;51.094;13.714;2023-05-15T05:38:36;6.68;;;3.80;;
75655;SDS011;64252;51.094;13.714;2023-05-15T05:41:02;5.97;;;3.70;;
75655;SDS011;64252;51.094;13.714;2023-05-15T05:43:28;6.78;;;3.90;;
75655;SDS011;64252;51.094;13.714;2023-05-15T05:45:55;6.20;;;3.72;;
75655;SDS011;64252;51.094;13.714;2023-05-15T05:48:21;7.65;;;4.60;;
75655;SDS011;64252;51.094;13.714;2023-05-15T05:50:46;6.13;;;3.92;;
75655;SDS011;64252;51.094;13.714;2023-05-15T05:53:28;6.47;;;4.35;;
75655;SDS011;64252;51.094;13.714;2023-05-15T05:55:57;7.60;;;4.50;;
75655;SDS011;64252;51.094;13.714;2023-05-15T05:58:23;7.50;;;4.45;;
75655;SDS011;64252;51.094;13.714;2023-05-15T06:00:48;7.32;;;4.40;;
75655;SDS011;64252;51.094;13.714;2023-05-15T06:03:14;8.07;;;4.85;;
75655;SDS011;64252;51.094;13.714;2023-05-15T06:05:43;9.07;;;4.43;;
75655;SDS011;64252;51.094;13.714;2023-05-15T06:08:08;8.18;;;4.78;;
75655;SDS011;64252;51.094;13.714;2023-05-15T06:10:34;7.65;;;4.45;;
75655;SDS011;64252;51.094;13.714;2023-05-15T06:13:03;8.82;;;5.15;;
75655;SDS011;64252;51.094;13.714;2023-05-15T06:15:28;7.50;;;4.00;;
75655;SDS011;64252;51.094;13.714;2023-05-15T06:17:54;7.97;;;4.60;;
75655;SDS011;64252;51.094;13.714;2023-05-15T06:20:20;9.80;;;4.80;;
75655;SDS011;64252;51.094;13.714;2023-05-15T06:22:47;8.07;;;4.88;;
75655;SDS011;64252;51.094;13.714;2023-05-15T06:25:12;14.70;;;5.18;;
75655;SDS011;64252;51.094;13.714;2023-05-15T06:27:39;8.05;;;4.65;;
75655;SDS011;64252;51.094;13.714;2023-05-15T06:30:05;7.00;;;4.60;;
75655;SDS011;64252;51.094;13.714;2023-05-15T06:32:31;9.07;;;4.50;;
75655;SDS011;64252;51.094;13.714;2023-05-15T06:34:57;5.80;;;3.42;;
75655;SDS011;64252;51.094;13.714;2023-05-15T06:37:23;7.50;;;4.15;;
75655;SDS011;64252;51.094;13.714;2023-05-15T06:39:49;7.13;;;4.10;;
75655;SDS011;64252;51.094;13.714;2023-05-15T06:42:14;6.68;;;3.90;;
75655;SDS011;64252;51.094;13.714;2023-05-15T06:44:40;6.78;;;3.67;;
75655;SDS011;64252;51.094;13.714;2023-05-15T06:47:05;7.90;;;4.22;;
75655;SDS011;64252;51.094;13.714;2023-05-15T06:49:31;11.93;;;5.38;;
75655;SDS011;64252;51.094;13.714;2023-05-15T06:51:56;6.45;;;4.55;;
75655;SDS011;64252;51.094;13.714;2023-05-15T06:54:22;6.82;;;4.50;;
75655;SDS011;64252;51.094;13.714;2023-05-15T06:56:48;8.18;;;4.45;;
75655;SDS011;64252;51.094;13.714;2023-05-15T06:59:13;6.43;;;4.30;;
75655;SDS011;64252;51.094;13.714;2023-05-15T07:01:39;9.25;;;4.85;;
75655;SDS011;64252;51.094;13.714;2023-05-15T07:04:05;8.48;;;4.78;;
75655;SDS011;64252;51.094;13.714;2023-05-15T07:06:31;9.05;;;5.75;;
75655;SDS011;64252;51.094;13.714;2023-05-15T07:08:57;7.05;;;4.90;;
75655;SDS011;64252;51.094;13.714;2023-05-15T07:11:23;11.73;;;6.82;;
75655;SDS011;64252;51.094;13.714;2023-05-15T07:13:50;13.00;;;4.50;;
75655;SDS011;64252;51.094;13.714;2023-05-15T07:16:16;9.45;;;5.53;;
75655;SDS011;64252;51.094;13.714;2023-05-15T07:18:42;10.68;;;6.30;;
75655;SDS011;64252;51.094;13.714;2023-05-15T07:21:07;10.05;;;5.25;;
75655;SDS011;64252;51.094;13.714;2023-05-15T07:23:33;9.10;;;4.78;;
75655;SDS011;64252;51.094;13.714;2023-05-15T07:25:58;6.63;;;4.40;;
75655;SDS011;64252;51.094;13.714;2023-05-15T07:28:24;7.38;;;3.95;;
75655;SDS011;64252;51.094;13.714;2023-05-15T07:30:49;7.13;;;3.67;;
75655;SDS011;64252;51.094;13.714;2023-05-15T07:33:16;5.47;;;3.60;;
75655;SDS011;64252;51.094;13.714;2023-05-15T07:35:41;7.88;;;5.53;;
75655;SDS011;64252;51.094;13.714;2023-05-15T07:38:08;11.38;;;5.32;;
75655;SDS011;64252;51.094;13.714;2023-05-15T07:40:33;6.63;;;4.05;;
75655;SDS011;64252;51.094;13.714;2023-05-15T07:42:59;9.18;;;4.15;;
75655;SDS011;64252;51.094;13.714;2023-05-15T07:45:24;5.97;;;3.90;;
75655;SDS011;64252;51.094;13.714;2023-05-15T07:47:50;5.35;;;3.85;;
75655;SDS011;64252;51.094;13.714;2023-05-15T07:50:16;11.13;;;6.68;;
75655;SDS011;64252;51.094;13.714;2023-05-15T07:52:41;6.80;;;4.38;;
75655;SDS011;64252;51.094;13.714;2023-05-15T07:55:08;6.63;;;3.90;;
75655;SDS011;64252;51.094;13.714;2023-05-15T07:57:37;6.38;;;3.92;;
75655;SDS011;64252;51.094;13.714;2023-05-15T08:00:06;8.35;;;4.75;;
75655;SDS011;64252;51.094;13.714;2023-05-15T08:02:38;7.70;;;4.53;;
75655;SDS011;64252;51.094;13.714;2023-05-15T08:05:04;6.22;;;3.80;;
75655;SDS011;64252;51.094;13.714;2023-05-15T08:07:31;8.48;;;5.07;;
75655;SDS011;64252;51.094;13.714;2023-05-15T08:09:57;6.47;;;4.15;;
75655;SDS011;64252;51.094;13.714;2023-05-15T08:12:23;8.57;;;3.88;;
75655;SDS011;64252;51.094;13.714;2023-05-15T08:14:52;7.95;;;4.82;;
75655;SDS011;64252;51.094;13.714;2023-05-15T08:17:19;6.35;;;3.95;;
75655;SDS011;64252;51.094;13.714;2023-05-15T08:19:45;8.35;;;3.85;;
75655;SDS011;64252;51.094;13.714;2023-05-15T08:22:12;8.20;;;3.90;;
75655;SDS011;64252;51.094;13.714;2023-05-15T08:24:38;6.93;;;4.22;;
75655;SDS011;64252;51.094;13.714;2023-05-15T08:27:05;7.80;;;4.32;;
75655;SDS011;64252;51.094;13.714;2023-05-15T08:29:31;6.90;;;4.45;;
75655;SDS011;64252;51.094;13.714;2023-05-15T08:31:57;5.82;;;3.67;;
75655;SDS011;64252;51.094;13.714;2023-05-15T08:34:23;10.32;;;4.93;;
75655;SDS011;64252;51.094;13.714;2023-05-15T08:36:50;8.15;;;4.68;;
75655;SDS011;64252;51.094;13.714;2023-05-15T08:39:16;6.70;;;4.03;;
75655;SDS011;64252;51.094;13.714;2023-05-15T08:42:26;6.95;;;4.70;;
75655;SDS011;64252;51.094;13.714;2023-05-15T08:44:48;5.85;;;4.50;;
75655;SDS011;64252;51.094;13.714;2023-05-15T08:47:14;7.63;;;4.43;;
75655;SDS011;64252;51.094;13.714;2023-05-15T08:52:16;8.32;;;4.65;;
75655;SDS011;64252;51.094;13.714;2023-05-15T08:54:42;7.00;;;4.65;;
75655;SDS011;64252;51.094;13.714;2023-05-15T08:57:08;7.88;;;4.68;;
75655;SDS011;64252;51.094;13.714;2023-05-15T08:59:34;9.15;;;4.53;;
75655;SDS011;64252;51.094;13.714;2023-05-15T09:02:01;9.43;;;4.53;;
75655;SDS011;64252;51.094;13.714;2023-05-15T09:04:27;6.38;;;4.03;;
75655;SDS011;64252;51.094;13.714;2023-05-15T09:10:41;7.50;;;4.43;;
75655;SDS011;64252;51.094;13.714;2023-05-15T09:13:08;6.53;;;4.32;;
75655;SDS011;64252;51.094;13.714;2023-05-15T09:15:34;13.93;;;5.15;;
75655;SDS011;64252;51.094;13.714;2023-05-15T09:18:01;7.80;;;4.53;;
75655;SDS011;64252;51.094;13.714;2023-05-15T09:20:28;7.85;;;4.45;;
75655;SDS011;64252;51.094;13.714;2023-05-15T09:22:56;7.20;;;4.65;;
75655;SDS011;64252;51.094;13.714;2023-05-15T09:25:38;8.55;;;4.55;;
75655;SDS011;64252;51.094;13.714;2023-05-15T09:28:08;5.93;;;3.72;;
75655;SDS011;64252;51.094;13.714;2023-05-15T09:30:48;7.65;;;4.20;;
75655;SDS011;64252;51.094;13.714;2023-05-15T09:33:15;6.65;;;4.95;;
75655;SDS011;64252;51.094;13.714;2023-05-15T09:35:51;7.68;;;4.82;;
75655;SDS011;64252;51.094;13.714;2023-05-15T09:38:18;8.25;;;4.65;;
75655;SDS011;64252;51.094;13.714;2023-05-15T09:40:43;6.38;;;4.55;;
75655;SDS011;64252;51.094;13.714;2023-05-15T09:43:09;7.22;;;4.13;;
75655;SDS011;64252;51.094;13.714;2023-05-15T09:45:36;8.13;;;4.40;;
75655;SDS011;64252;51.094;13.714;2023-05-15T09:48:05;6.65;;;4.28;;
75655;SDS011;64252;51.094;13.714;2023-05-15T09:50:37;8.48;;;4.10;;
75655;SDS011;64252;51.094;13.714;2023-05-15T09:53:04;6.15;;;3.47;;
75655;SDS011;64252;51.094;13.714;2023-05-15T09:55:30;5.75;;;4.25;;
75655;SDS011;64252;51.094;13.714;2023-05-15T10:00:34;6.78;;;3.85;;
75655;SDS011;64252;51.094;13.714;2023-05-15T10:03:00;8.40;;;4.00;;
75655;SDS011;64252;51.094;13.714;2023-05-15T10:05:27;6.07;;;4.03;;
75655;SDS011;64252;51.094;13.714;2023-05-15T10:07:55;6.03;;;3.88;;
75655;SDS011;64252;51.094;13.714;2023-05-15T10:10:21;6.60;;;4.25;;
75655;SDS011;64252;51.094;13.714;2023-05-15T10:12:50;7.40;;;4.25;;
75655;SDS011;64252;51.094;13.714;2023-05-15T10:15:17;6.28;;;4.20;;
75655;SDS011;64252;51.094;13.714;2023-05-15T10:17:46;4.72;;;3.50;;
75655;SDS011;64252;51.094;13.714;2023-05-15T10:20:12;5.93;;;4.28;;
75655;SDS011;64252;51.094;13.714;2023-05-15T10:22:39;6.50;;;4.20;;
75655;SDS011;64252;51.094;13.714;2023-05-15T10:25:12;4.88;;;3.38;;
75655;SDS011;64252;51.094;13.714;2023-05-15T10:27:41;6.78;;;4.03;;
75655;SDS011;64252;51.094;13.714;2023-05-15T10:30:08;7.50;;;4.20;;
75655;SDS011;64252;51.094;13.714;2023-05-15T10:32:35;6.88;;;3.63;;
75655;SDS011;64252;51.094;13.714;2023-05-15T10:35:02;7.63;;;3.88;;
75655;SDS011;64252;51.094;13.714;2023-05-15T10:37:28;5.43;;;3.40;;
75655;SDS011;64252;51.094;13.714;2023-05-15T10:39:54;6.05;;;3.85;;
75655;SDS011;64252;51.094;13.714;2023-05-15T10:42:22;5.47;;;3.38;;
75655;SDS011;64252;51.094;13.714;2023-05-15T10:44:51;5.63;;;3.13;;
75655;SDS011;64252;51.094;13.714;2023-05-15T10:47:17;6.03;;;3.30;;
75655;SDS011;64252;51.094;13.714;2023-05-15T10:49:43;6.07;;;2.92;;
75655;SDS011;64252;51.094;13.714;2023-05-15T10:52:08;8.48;;;3.25;;
75655;SDS011;64252;51.094;13.714;2023-05-15T10:54:34;5.20;;;3.00;;
75655;SDS011;64252;51.094;13.714;2023-05-15T10:57:00;6.15;;;3.72;;
75655;SDS011;64252;51.094;13.714;2023-05-15T10:59:29;5.80;;;3.13;;
75655;SDS011;64252;51.094;13.714;2023-05-15T11:01:56;5.47;;;3.30;;
75655;SDS011;64252;51.094;13.714;2023-05-15T11:04:28;6.63;;;3.22;;
75655;SDS011;64252;51.094;13.714;2023-05-15T11:07:09;5.25;;;3.20;;
75655;SDS011;64252;51.094;13.714;2023-05-15T11:09:37;7.35;;;3.67;;
75655;SDS011;64252;51.094;13.714;2023-05-15T11:12:04;11.70;;;3.72;;
75655;SDS011;64252;51.094;13.714;2023-05-15T11:14:41;6.18;;;3.97;;
75655;SDS011;64252;51.094;13.714;2023-05-15T11:17:08;7.00;;;3.53;;
75655;SDS011;64252;51.094;13.714;2023-05-15T11:27:26;6.22;;;3.35;;
75655;SDS011;64252;51.094;13.714;2023-05-15T11:30:17;12.98;;;3.97;;
75655;SDS011;64252;51.094;13.714;2023-05-15T11:35:12;7.13;;;3.60;;
75655;SDS011;64252;51.094;13.714;2023-05-15T11:37:51;6.65;;;3.42;;
75655;SDS011;64252;51.094;13.714;2023-05-15T11:40:20;7.03;;;3.65;;
75655;SDS011;64252;51.094;13.714;2023-05-15T11:42:58;6.00;;;4.45;;
75655;SDS011;64252;51.094;13.714;2023-05-15T11:45:23;6.40;;;4.45;;
75655;SDS011;64252;51.094;13.714;2023-05-15T11:47:49;6.20;;;3.92;;
75655;SDS011;64252;51.094;13.714;2023-05-15T11:50:15;10.10;;;4.45;;
75655;SDS011;64252;51.094;13.714;2023-05-15T11:52:42;7.57;;;4.32;;
75655;SDS011;64252;51.094;13.714;2023-05-15T11:55:09;6.80;;;3.88;;
75655;SDS011;64252;51.094;13.714;2023-05-15T11:57:36;9.90;;;5.22;;
75655;SDS011;64252;51.094;13.714;2023-05-15T12:00:02;12.35;;;5.50;;
75655;SDS011;64252;51.094;13.714;2023-05-15T12:02:30;8.02;;;5.90;;
75655;SDS011;64252;51.094;13.714;2023-05-15T12:04:56;9.55;;;5.80;;
75655;SDS011;64252;51.094;13.714;2023-05-15T12:07:21;9.77;;;6.10;;
75655;SDS011;64252;51.094;13.714;2023-05-15T12:09:50;11.63;;;7.13;;
75655;SDS011;64252;51.094;13.714;2023-05-15T12:12:19;8.13;;;6.20;;
75655;SDS011;64252;51.094;13.714;2023-05-15T12:14:45;11.23;;;7.82;;
75655;SDS011;64252;51.094;13.714;2023-05-15T12:17:10;9.65;;;6.45;;
75655;SDS011;64252;51.094;13.714;2023-05-15T12:19:36;8.70;;;6.47;;
75655;SDS011;64252;51.094;13.714;2023-05-15T12:22:05;8.93;;;6.43;;
75655;SDS011;64252;51.094;13.714;2023-05-15T12:24:32;11.27;;;7.00;;
75655;SDS011;64252;51.094;13.714;2023-05-15T12:27:03;11.75;;;6.85;;
75655;SDS011;64252;51.094;13.714;2023-05-15T12:29:30;8.63;;;6.18;;
75655;SDS011;64252;51.094;13.714;2023-05-15T12:31:56;9.10;;;7.15;;
75655;SDS011;64252;51.094;13.714;2023-05-15T12:34:22;14.05;;;8.10;;
75655;SDS011;64252;51.094;13.714;2023-05-15T12:36:48;8.60;;;5.68;;
75655;SDS011;64252;51.094;13.714;2023-05-15T12:39:15;7.82;;;5.60;;
75655;SDS011;64252;51.094;13.714;2023-05-15T12:41:41;8.82;;;5.60;;
75655;SDS011;64252;51.094;13.714;2023-05-15T12:44:17;9.05;;;6.45;;
75655;SDS011;64252;51.094;13.714;2023-05-15T12:46:46;6.65;;;5.50;;
75655;SDS011;64252;51.094;13.714;2023-05-15T12:49:12;7.38;;;5.88;;
75655;SDS011;64252;51.094;13.714;2023-05-15T12:51:41;10.23;;;5.85;;
75655;SDS011;64252;51.094;13.714;2023-05-15T12:54:17;7.50;;;5.05;;
75655;SDS011;64252;51.094;13.714;2023-05-15T12:56:44;7.35;;;5.45;;
75655;SDS011;64252;51.094;13.714;2023-05-15T12:59:11;7.90;;;5.85;;
75655;SDS011;64252;51.094;13.714;2023-05-15T13:01:39;8.93;;;5.30;;
75655;SDS011;64252;51.094;13.714;2023-05-15T13:04:06;7.20;;;4.30;;
75655;SDS011;64252;51.094;13.714;2023-05-15T13:06:33;8.32;;;5.07;;
75655;SDS011;64252;51.094;13.714;2023-05-15T13:08:59;9.23;;;5.55;;
75655;SDS011;64252;51.094;13.714;2023-05-15T13:11:28;9.07;;;6.32;;
75655;SDS011;64252;51.094;13.714;2023-05-15T13:13:55;10.73;;;7.68;;
75655;SDS011;64252;51.094;13.714;2023-05-15T13:16:25;10.73;;;7.63;;
75655;SDS011;64252;51.094;13.714;2023-05-15T13:18:54;10.75;;;7.65;;
75655;SDS011;64252;51.094;13.714;2023-05-15T13:21:22;10.90;;;7.82;;
75655;SDS011;64252;51.094;13.714;2023-05-15T13:23:49;14.32;;;8.45;;
75655;SDS011;64252;51.094;13.714;2023-05-15T13:26:16;14.95;;;10.80;;
75655;SDS011;64252;51.094;13.714;2023-05-15T13:28:41;15.90;;;10.75;;
75655;SDS011;64252;51.094;13.714;2023-05-15T13:31:07;12.55;;;9.45;;
75655;SDS011;64252;51.094;13.714;2023-05-15T13:33:33;16.58;;;9.73;;
75655;SDS011;64252;51.094;13.714;2023-05-15T13:36:00;14.88;;;9.18;;
75655;SDS011;64252;51.094;13.714;2023-05-15T13:38:26;17.58;;;10.07;;
75655;SDS011;64252;51.094;13.714;2023-05-15T13:40:51;18.88;;;12.20;;
75655;SDS011;64252;51.094;13.714;2023-05-15T13:43:17;10.80;;;8.85;;
75655;SDS011;64252;51.094;13.714;2023-05-15T13:45:42;10.65;;;7.93;;
75655;SDS011;64252;51.094;13.714;2023-05-15T13:48:23;14.23;;;9.98;;
75655;SDS011;64252;51.094;13.714;2023-05-15T13:50:49;13.02;;;9.10;;
75655;SDS011;64252;51.094;13.714;2023-05-15T13:53:16;10.75;;;8.52;;
75655;SDS011;64252;51.094;13.714;2023-05-15T13:55:42;12.13;;;8.50;;
75655;SDS011;64252;51.094;13.714;2023-05-15T14:01:56;12.10;;;7.85;;
75655;SDS011;64252;51.094;13.714;2023-05-15T14:04:22;10.70;;;7.45;;
75655;SDS011;64252;51.094;13.714;2023-05-15T14:06:48;11.07;;;8.50;;
75655;SDS011;64252;51.094;13.714;2023-05-15T14:09:16;13.07;;;8.05;;
75655;SDS011;64252;51.094;13.714;2023-05-15T14:11:42;13.38;;;8.20;;
75655;SDS011;64252;51.094;13.714;2023-05-15T14:14:07;9.95;;;6.10;;
75655;SDS011;64252;51.094;13.714;2023-05-15T14:16:33;7.88;;;5.90;;
75655;SDS011;64252;51.094;13.714;2023-05-15T14:18:59;11.50;;;5.90;;
75655;SDS011;64252;51.094;13.714;2023-05-15T14:21:25;7.47;;;5.70;;
75655;SDS011;64252;51.094;13.714;2023-05-15T14:23:51;10.05;;;6.10;;
75655;SDS011;64252;51.094;13.714;2023-05-15T14:26:17;8.13;;;5.70;;
75655;SDS011;64252;51.094;13.714;2023-05-15T14:28:43;8.50;;;5.28;;
75655;SDS011;64252;51.094;13.714;2023-05-15T14:31:08;9.05;;;5.93;;
75655;SDS011;64252;51.094;13.714;2023-05-15T14:33:34;6.38;;;4.75;;
75655;SDS011;64252;51.094;13.714;2023-05-15T14:39:46;8.75;;;5.70;;
75655;SDS011;64252;51.094;13.714;2023-05-15T14:42:12;8.05;;;4.82;;
75655;SDS011;64252;51.094;13.714;2023-05-15T14:44:38;9.90;;;5.05;;
75655;SDS011;64252;51.094;13.714;2023-05-15T14:47:12;7.70;;;5.47;;
75655;SDS011;64252;51.094;13.714;2023-05-15T14:49:38;5.53;;;4.38;;
75655;SDS011;64252;51.094;13.714;2023-05-15T14:52:05;8.65;;;4.47;;
75655;SDS011;64252;51.094;13.714;2023-05-15T14:54:33;6.75;;;4.18;;
75655;SDS011;64252;51.094;13.714;2023-05-15T14:57:02;6.45;;;4.00;;
75655;SDS011;64252;51.094;13.714;2023-05-15T14:59:28;7.82;;;4.05;;
75655;SDS011;64252;51.094;13.714;2023-05-15T15:01:54;8.57;;;6.20;;
75655;SDS011;64252;51.094;13.714;2023-05-15T15:04:20;6.47;;;4.45;;
75655;SDS011;64252;51.094;13.714;2023-05-15T15:06:46;6.25;;;4.30;;
75655;SDS011;64252;51.094;13.714;2023-05-15T15:09:12;5.80;;;3.97;;
75655;SDS011;64252;51.094;13.714;2023-05-15T15:11:37;5.18;;;3.47;;
75655;SDS011;64252;51.094;13.714;2023-05-15T15:14:03;7.13;;;4.20;;
75655;SDS011;64252;51.094;13.714;2023-05-15T15:16:29;5.63;;;3.75;;
75655;SDS011;64252;51.094;13.714;2023-05-15T15:18:54;5.13;;;3.38;;
75655;SDS011;64252;51.094;13.714;2023-05-15T15:21:20;8.18;;;3.90;;